Current Weather

Twentynine Palms Self

Twentynine Palms, California (KNXP)

Report from: Thursday, July 18, 2024 5:56 AM PDT
Current time: Thursday, July 18, 2024 6:48 AM PDT

Nearby weather – Weather history – Daily summaries
Weather forecast

Temperature28.9°C (84.0°F)
Heat index27.8°C (82.1°F)
Dew point8.3°C (46.9°F)
Winds 6 kts (3.1 m/s, 6.9 mph) Northwest (310°)
Visibility10 mi. (16.1 km)
Clouds Sky clear
Altimeter30.02 in.Hg (1017 mB)
Relative humidity28 %
Density altitude1,794 ft. (547 m)
Sea-level pressure101.2 kPa (1012 mB, 29.89 in.Hg)
Remarks Fully automated report
Automated weather observing station with precipitation discriminator
Flight conditions Visual Meteorological Conditions
Raw dataKNXP 181256Z AUTO 31006KT 10SM CLR 29/08 A3002 RMK AO2 SLP121 T02890083
An error has occurred. This application may no longer respond until reloaded. Reload 🗙